sensor_id;sensor_type;location;lat;lon;timestamp;P1;durP1;ratioP1;P2;durP2;ratioP2
48975;SDS011;34791;52.752;8.346;2022-12-05T00:01:50;43.23;;;19.53;;
48975;SDS011;34791;52.752;8.346;2022-12-05T00:04:15;45.57;;;21.27;;
48975;SDS011;34791;52.752;8.346;2022-12-05T00:06:41;41.13;;;18.93;;
48975;SDS011;34791;52.752;8.346;2022-12-05T00:09:08;38.57;;;17.10;;
48975;SDS011;34791;52.752;8.346;2022-12-05T00:11:35;40.23;;;17.17;;
48975;SDS011;34791;52.752;8.346;2022-12-05T00:14:02;47.00;;;20.67;;
48975;SDS011;34791;52.752;8.346;2022-12-05T00:16:29;41.23;;;18.40;;
48975;SDS011;34791;52.752;8.346;2022-12-05T00:18:57;40.87;;;18.33;;
48975;SDS011;34791;52.752;8.346;2022-12-05T00:21:26;46.87;;;21.73;;
48975;SDS011;34791;52.752;8.346;2022-12-05T00:23:54;46.93;;;20.97;;
48975;SDS011;34791;52.752;8.346;2022-12-05T00:26:20;44.53;;;20.67;;
48975;SDS011;34791;52.752;8.346;2022-12-05T00:28:46;41.30;;;17.93;;
48975;SDS011;34791;52.752;8.346;2022-12-05T00:31:17;50.70;;;23.53;;
48975;SDS011;34791;52.752;8.346;2022-12-05T00:33:44;40.90;;;17.58;;
48975;SDS011;34791;52.752;8.346;2022-12-05T00:36:20;42.47;;;19.20;;
48975;SDS011;34791;52.752;8.346;2022-12-05T00:38:50;48.63;;;22.87;;
48975;SDS011;34791;52.752;8.346;2022-12-05T00:41:17;41.57;;;17.73;;
48975;SDS011;34791;52.752;8.346;2022-12-05T00:43:48;45.30;;;21.75;;
48975;SDS011;34791;52.752;8.346;2022-12-05T00:46:23;51.77;;;22.67;;
48975;SDS011;34791;52.752;8.346;2022-12-05T00:48:51;40.67;;;18.03;;
48975;SDS011;34791;52.752;8.346;2022-12-05T00:51:22;46.87;;;21.93;;
48975;SDS011;34791;52.752;8.346;2022-12-05T00:53:52;54.53;;;23.67;;
48975;SDS011;34791;52.752;8.346;2022-12-05T00:56:21;50.37;;;22.97;;
48975;SDS011;34791;52.752;8.346;2022-12-05T00:58:48;42.90;;;17.87;;
48975;SDS011;34791;52.752;8.346;2022-12-05T01:01:26;47.97;;;20.17;;
48975;SDS011;34791;52.752;8.346;2022-12-05T01:03:57;42.23;;;19.70;;
48975;SDS011;34791;52.752;8.346;2022-12-05T01:06:24;41.23;;;18.90;;
48975;SDS011;34791;52.752;8.346;2022-12-05T01:08:51;46.43;;;21.33;;
48975;SDS011;34791;52.752;8.346;2022-12-05T01:11:18;47.03;;;19.67;;
48975;SDS011;34791;52.752;8.346;2022-12-05T01:13:46;41.73;;;18.30;;
48975;SDS011;34791;52.752;8.346;2022-12-05T01:16:22;34.87;;;14.37;;
48975;SDS011;34791;52.752;8.346;2022-12-05T01:18:52;40.63;;;18.33;;
48975;SDS011;34791;52.752;8.346;2022-12-05T01:21:18;37.67;;;17.63;;
48975;SDS011;34791;52.752;8.346;2022-12-05T01:23:44;44.57;;;18.13;;
48975;SDS011;34791;52.752;8.346;2022-12-05T01:26:10;46.27;;;20.20;;
48975;SDS011;34791;52.752;8.346;2022-12-05T01:28:37;54.17;;;24.33;;
48975;SDS011;34791;52.752;8.346;2022-12-05T01:31:04;49.07;;;22.83;;
48975;SDS011;34791;52.752;8.346;2022-12-05T01:33:31;42.77;;;20.00;;
48975;SDS011;34791;52.752;8.346;2022-12-05T01:35:57;49.87;;;23.57;;
48975;SDS011;34791;52.752;8.346;2022-12-05T01:38:23;47.20;;;23.50;;
48975;SDS011;34791;52.752;8.346;2022-12-05T01:40:48;45.10;;;19.23;;
48975;SDS011;34791;52.752;8.346;2022-12-05T01:43:15;42.60;;;18.60;;
48975;SDS011;34791;52.752;8.346;2022-12-05T01:45:42;41.97;;;17.07;;
48975;SDS011;34791;52.752;8.346;2022-12-05T01:48:43;46.37;;;19.33;;
48975;SDS011;34791;52.752;8.346;2022-12-05T01:51:01;47.92;;;21.27;;
48975;SDS011;34791;52.752;8.346;2022-12-05T01:53:27;53.33;;;24.43;;
48975;SDS011;34791;52.752;8.346;2022-12-05T01:55:53;46.43;;;20.80;;
48975;SDS011;34791;52.752;8.346;2022-12-05T01:58:19;48.47;;;21.43;;
48975;SDS011;34791;52.752;8.346;2022-12-05T02:00:45;48.43;;;21.93;;
48975;SDS011;34791;52.752;8.346;2022-12-05T02:03:15;49.67;;;21.10;;
48975;SDS011;34791;52.752;8.346;2022-12-05T02:05:46;51.13;;;24.07;;
48975;SDS011;34791;52.752;8.346;2022-12-05T02:08:14;40.73;;;16.90;;
48975;SDS011;34791;52.752;8.346;2022-12-05T02:10:42;49.27;;;21.40;;
48975;SDS011;34791;52.752;8.346;2022-12-05T02:18:52;52.70;;;23.80;;
48975;SDS011;34791;52.752;8.346;2022-12-05T02:21:38;44.90;;;20.10;;
48975;SDS011;34791;52.752;8.346;2022-12-05T02:32:06;55.53;;;23.53;;
48975;SDS011;34791;52.752;8.346;2022-12-05T02:35:11;33.57;;;15.40;;
48975;SDS011;34791;52.752;8.346;2022-12-05T02:42:59;58.93;;;24.13;;
48975;SDS011;34791;52.752;8.346;2022-12-05T02:45:29;57.40;;;24.87;;
48975;SDS011;34791;52.752;8.346;2022-12-05T02:47:58;59.77;;;25.37;;
48975;SDS011;34791;52.752;8.346;2022-12-05T02:50:27;63.03;;;28.00;;
48975;SDS011;34791;52.752;8.346;2022-12-05T02:55:24;61.60;;;24.40;;
48975;SDS011;34791;52.752;8.346;2022-12-05T02:57:53;57.30;;;23.23;;
48975;SDS011;34791;52.752;8.346;2022-12-05T03:00:22;57.63;;;24.17;;
48975;SDS011;34791;52.752;8.346;2022-12-05T03:02:47;59.13;;;24.30;;
48975;SDS011;34791;52.752;8.346;2022-12-05T03:08:05;56.53;;;23.47;;
48975;SDS011;34791;52.752;8.346;2022-12-05T03:10:34;60.43;;;25.53;;
48975;SDS011;34791;52.752;8.346;2022-12-05T03:13:05;58.23;;;22.77;;
48975;SDS011;34791;52.752;8.346;2022-12-05T03:15:39;58.33;;;24.23;;
48975;SDS011;34791;52.752;8.346;2022-12-05T03:18:10;63.33;;;27.03;;
48975;SDS011;34791;52.752;8.346;2022-12-05T03:20:44;66.30;;;26.40;;
48975;SDS011;34791;52.752;8.346;2022-12-05T03:23:24;67.63;;;25.97;;
48975;SDS011;34791;52.752;8.346;2022-12-05T03:31:16;64.33;;;25.87;;
48975;SDS011;34791;52.752;8.346;2022-12-05T03:33:49;63.97;;;26.80;;
48975;SDS011;34791;52.752;8.346;2022-12-05T03:36:22;64.93;;;27.00;;
48975;SDS011;34791;52.752;8.346;2022-12-05T03:39:08;67.37;;;25.60;;
48975;SDS011;34791;52.752;8.346;2022-12-05T03:41:51;67.43;;;27.60;;
48975;SDS011;34791;52.752;8.346;2022-12-05T03:44:33;74.67;;;27.87;;
48975;SDS011;34791;52.752;8.346;2022-12-05T03:47:11;71.57;;;26.67;;
48975;SDS011;34791;52.752;8.346;2022-12-05T03:49:46;71.83;;;26.73;;
48975;SDS011;34791;52.752;8.346;2022-12-05T03:54:55;71.80;;;27.67;;
48975;SDS011;34791;52.752;8.346;2022-12-05T03:57:27;76.50;;;27.30;;
48975;SDS011;34791;52.752;8.346;2022-12-05T04:00:02;70.90;;;25.37;;
48975;SDS011;34791;52.752;8.346;2022-12-05T04:02:40;78.70;;;28.10;;
48975;SDS011;34791;52.752;8.346;2022-12-05T04:05:17;61.90;;;22.13;;
48975;SDS011;34791;52.752;8.346;2022-12-05T04:08:03;68.70;;;26.60;;
48975;SDS011;34791;52.752;8.346;2022-12-05T04:10:52;62.33;;;22.80;;
48975;SDS011;34791;52.752;8.346;2022-12-05T04:13:24;72.20;;;25.67;;
48975;SDS011;34791;52.752;8.346;2022-12-05T04:16:01;77.70;;;27.40;;
48975;SDS011;34791;52.752;8.346;2022-12-05T04:19:35;69.33;;;24.13;;
48975;SDS011;34791;52.752;8.346;2022-12-05T04:21:44;66.10;;;24.40;;
48975;SDS011;34791;52.752;8.346;2022-12-05T04:24:19;67.30;;;23.83;;
48975;SDS011;34791;52.752;8.346;2022-12-05T04:32:19;61.57;;;22.70;;
48975;SDS011;34791;52.752;8.346;2022-12-05T04:34:52;71.50;;;24.80;;
48975;SDS011;34791;52.752;8.346;2022-12-05T04:37:22;81.10;;;26.97;;
48975;SDS011;34791;52.752;8.346;2022-12-05T04:42:26;68.17;;;24.83;;
48975;SDS011;34791;52.752;8.346;2022-12-05T04:44:56;70.97;;;25.33;;
48975;SDS011;34791;52.752;8.346;2022-12-05T04:47:27;90.75;;;28.13;;
48975;SDS011;34791;52.752;8.346;2022-12-05T04:49:56;83.10;;;27.83;;
48975;SDS011;34791;52.752;8.346;2022-12-05T04:52:24;83.47;;;27.03;;
48975;SDS011;34791;52.752;8.346;2022-12-05T04:55:04;93.57;;;27.23;;
48975;SDS011;34791;52.752;8.346;2022-12-05T05:00:30;90.13;;;28.00;;
48975;SDS011;34791;52.752;8.346;2022-12-05T05:05:51;87.87;;;28.93;;
48975;SDS011;34791;52.752;8.346;2022-12-05T05:08:20;90.23;;;26.77;;
48975;SDS011;34791;52.752;8.346;2022-12-05T05:10:53;101.37;;;28.97;;
48975;SDS011;34791;52.752;8.346;2022-12-05T05:13:27;93.80;;;28.83;;
48975;SDS011;34791;52.752;8.346;2022-12-05T05:15:53;105.77;;;29.50;;
48975;SDS011;34791;52.752;8.346;2022-12-05T05:18:18;96.93;;;27.83;;
48975;SDS011;34791;52.752;8.346;2022-12-05T05:20:44;93.53;;;29.27;;
48975;SDS011;34791;52.752;8.346;2022-12-05T05:23:09;99.67;;;28.60;;
48975;SDS011;34791;52.752;8.346;2022-12-05T05:25:34;90.50;;;27.70;;
48975;SDS011;34791;52.752;8.346;2022-12-05T05:28:00;84.10;;;27.37;;
48975;SDS011;34791;52.752;8.346;2022-12-05T05:30:25;95.30;;;26.97;;
48975;SDS011;34791;52.752;8.346;2022-12-05T05:32:51;92.03;;;28.43;;
48975;SDS011;34791;52.752;8.346;2022-12-05T05:35:17;93.67;;;27.43;;
48975;SDS011;34791;52.752;8.346;2022-12-05T05:37:42;94.60;;;28.70;;
48975;SDS011;34791;52.752;8.346;2022-12-05T05:40:08;96.90;;;27.97;;
48975;SDS011;34791;52.752;8.346;2022-12-05T05:42:35;108.40;;;30.47;;
48975;SDS011;34791;52.752;8.346;2022-12-05T05:45:05;85.77;;;25.57;;
48975;SDS011;34791;52.752;8.346;2022-12-05T05:47:31;89.27;;;27.50;;
48975;SDS011;34791;52.752;8.346;2022-12-05T05:49:56;92.17;;;28.13;;
48975;SDS011;34791;52.752;8.346;2022-12-05T05:52:22;90.03;;;27.20;;
48975;SDS011;34791;52.752;8.346;2022-12-05T05:54:47;105.83;;;28.63;;
48975;SDS011;34791;52.752;8.346;2022-12-05T05:57:12;90.87;;;26.83;;
48975;SDS011;34791;52.752;8.346;2022-12-05T05:59:38;95.50;;;27.00;;
48975;SDS011;34791;52.752;8.346;2022-12-05T06:02:03;102.43;;;27.60;;
48975;SDS011;34791;52.752;8.346;2022-12-05T06:04:28;84.93;;;26.20;;
48975;SDS011;34791;52.752;8.346;2022-12-05T06:06:54;75.47;;;24.33;;
48975;SDS011;34791;52.752;8.346;2022-12-05T06:09:19;87.83;;;27.67;;
48975;SDS011;34791;52.752;8.346;2022-12-05T06:11:44;89.20;;;27.43;;
48975;SDS011;34791;52.752;8.346;2022-12-05T06:14:10;80.03;;;26.93;;
48975;SDS011;34791;52.752;8.346;2022-12-05T06:16:35;90.63;;;27.43;;
48975;SDS011;34791;52.752;8.346;2022-12-05T06:19:00;86.60;;;26.00;;
48975;SDS011;34791;52.752;8.346;2022-12-05T06:21:26;83.80;;;25.73;;
48975;SDS011;34791;52.752;8.346;2022-12-05T06:23:52;91.70;;;26.50;;
48975;SDS011;34791;52.752;8.346;2022-12-05T06:26:18;86.97;;;26.63;;
48975;SDS011;34791;52.752;8.346;2022-12-05T06:28:45;81.53;;;25.80;;
48975;SDS011;34791;52.752;8.346;2022-12-05T06:31:12;82.47;;;24.33;;
48975;SDS011;34791;52.752;8.346;2022-12-05T06:33:39;83.50;;;25.23;;
48975;SDS011;34791;52.752;8.346;2022-12-05T06:36:12;79.67;;;24.13;;
48975;SDS011;34791;52.752;8.346;2022-12-05T06:38:40;85.10;;;24.87;;
48975;SDS011;34791;52.752;8.346;2022-12-05T06:41:07;74.57;;;23.67;;
48975;SDS011;34791;52.752;8.346;2022-12-05T06:43:33;79.97;;;23.53;;
48975;SDS011;34791;52.752;8.346;2022-12-05T06:46:00;73.50;;;23.13;;
48975;SDS011;34791;52.752;8.346;2022-12-05T06:48:29;80.57;;;24.57;;
48975;SDS011;34791;52.752;8.346;2022-12-05T06:50:54;78.70;;;23.97;;
48975;SDS011;34791;52.752;8.346;2022-12-05T06:53:19;77.37;;;24.57;;
48975;SDS011;34791;52.752;8.346;2022-12-05T06:56:01;77.53;;;24.13;;
48975;SDS011;34791;52.752;8.346;2022-12-05T06:58:28;77.90;;;23.30;;
48975;SDS011;34791;52.752;8.346;2022-12-05T07:00:54;77.33;;;25.00;;
48975;SDS011;34791;52.752;8.346;2022-12-05T07:03:38;78.93;;;25.20;;
48975;SDS011;34791;52.752;8.346;2022-12-05T07:06:05;81.97;;;24.60;;
48975;SDS011;34791;52.752;8.346;2022-12-05T07:08:31;79.67;;;24.97;;
48975;SDS011;34791;52.752;8.346;2022-12-05T07:10:58;77.33;;;24.57;;
48975;SDS011;34791;52.752;8.346;2022-12-05T07:13:23;79.27;;;24.93;;
48975;SDS011;34791;52.752;8.346;2022-12-05T07:15:49;85.27;;;25.10;;
48975;SDS011;34791;52.752;8.346;2022-12-05T07:18:14;78.20;;;25.23;;
48975;SDS011;34791;52.752;8.346;2022-12-05T07:20:41;84.17;;;25.53;;
48975;SDS011;34791;52.752;8.346;2022-12-05T07:23:07;78.60;;;24.10;;
48975;SDS011;34791;52.752;8.346;2022-12-05T07:25:33;83.93;;;24.73;;
48975;SDS011;34791;52.752;8.346;2022-12-05T07:27:58;76.27;;;23.73;;
48975;SDS011;34791;52.752;8.346;2022-12-05T07:30:24;74.83;;;22.50;;
48975;SDS011;34791;52.752;8.346;2022-12-05T07:32:49;78.20;;;24.10;;
48975;SDS011;34791;52.752;8.346;2022-12-05T07:35:14;75.13;;;23.67;;
48975;SDS011;34791;52.752;8.346;2022-12-05T07:37:40;72.03;;;22.30;;
48975;SDS011;34791;52.752;8.346;2022-12-05T07:40:05;72.97;;;24.10;;
48975;SDS011;34791;52.752;8.346;2022-12-05T07:42:31;69.77;;;22.47;;
48975;SDS011;34791;52.752;8.346;2022-12-05T07:44:56;71.20;;;23.60;;
48975;SDS011;34791;52.752;8.346;2022-12-05T07:47:22;78.63;;;24.80;;
48975;SDS011;34791;52.752;8.346;2022-12-05T07:49:47;80.23;;;23.70;;
48975;SDS011;34791;52.752;8.346;2022-12-05T07:52:12;78.40;;;24.07;;
48975;SDS011;34791;52.752;8.346;2022-12-05T07:54:38;76.20;;;23.07;;
48975;SDS011;34791;52.752;8.346;2022-12-05T07:57:03;68.63;;;22.17;;
48975;SDS011;34791;52.752;8.346;2022-12-05T07:59:28;66.63;;;21.80;;
48975;SDS011;34791;52.752;8.346;2022-12-05T08:01:54;69.53;;;22.73;;
48975;SDS011;34791;52.752;8.346;2022-12-05T08:04:19;72.20;;;22.40;;
48975;SDS011;34791;52.752;8.346;2022-12-05T08:06:45;66.83;;;22.17;;
48975;SDS011;34791;52.752;8.346;2022-12-05T08:09:10;76.77;;;23.23;;
48975;SDS011;34791;52.752;8.346;2022-12-05T08:11:35;79.70;;;22.90;;
48975;SDS011;34791;52.752;8.346;2022-12-05T08:14:02;66.10;;;22.40;;
48975;SDS011;34791;52.752;8.346;2022-12-05T08:16:29;66.13;;;21.20;;
48975;SDS011;34791;52.752;8.346;2022-12-05T08:19:06;70.50;;;22.47;;
48975;SDS011;34791;52.752;8.346;2022-12-05T08:21:32;73.73;;;22.57;;
48975;SDS011;34791;52.752;8.346;2022-12-05T08:23:59;53.17;;;16.83;;
48975;SDS011;34791;52.752;8.346;2022-12-05T08:26:25;61.10;;;21.10;;
48975;SDS011;34791;52.752;8.346;2022-12-05T08:28:53;61.03;;;21.03;;
48975;SDS011;34791;52.752;8.346;2022-12-05T08:31:27;61.40;;;20.23;;
48975;SDS011;34791;52.752;8.346;2022-12-05T08:33:55;56.03;;;18.87;;
48975;SDS011;34791;52.752;8.346;2022-12-05T08:36:21;52.87;;;18.60;;
48975;SDS011;34791;52.752;8.346;2022-12-05T08:38:47;46.73;;;16.23;;
48975;SDS011;34791;52.752;8.346;2022-12-05T08:41:13;42.17;;;15.73;;
48975;SDS011;34791;52.752;8.346;2022-12-05T08:43:40;49.63;;;18.50;;
48975;SDS011;34791;52.752;8.346;2022-12-05T08:46:06;47.60;;;16.87;;
48975;SDS011;34791;52.752;8.346;2022-12-05T08:48:32;39.53;;;15.70;;
48975;SDS011;34791;52.752;8.346;2022-12-05T08:50:58;43.73;;;16.47;;
48975;SDS011;34791;52.752;8.346;2022-12-05T08:53:28;38.47;;;15.60;;
48975;SDS011;34791;52.752;8.346;2022-12-05T08:55:53;36.83;;;13.33;;
48975;SDS011;34791;52.752;8.346;2022-12-05T08:58:19;35.20;;;14.30;;
48975;SDS011;34791;52.752;8.346;2022-12-05T09:00:44;33.43;;;14.60;;
48975;SDS011;34791;52.752;8.346;2022-12-05T09:03:10;34.00;;;14.23;;
48975;SDS011;34791;52.752;8.346;2022-12-05T09:05:36;32.47;;;11.97;;
48975;SDS011;34791;52.752;8.346;2022-12-05T09:08:01;35.23;;;14.10;;
48975;SDS011;34791;52.752;8.346;2022-12-05T09:10:28;33.77;;;13.90;;
48975;SDS011;34791;52.752;8.346;2022-12-05T09:12:53;27.37;;;12.50;;
48975;SDS011;34791;52.752;8.346;2022-12-05T09:15:19;25.43;;;11.33;;
48975;SDS011;34791;52.752;8.346;2022-12-05T09:17:44;26.23;;;11.87;;
48975;SDS011;34791;52.752;8.346;2022-12-05T09:20:10;27.80;;;11.90;;
48975;SDS011;34791;52.752;8.346;2022-12-05T09:22:38;25.80;;;12.63;;
48975;SDS011;34791;52.752;8.346;2022-12-05T09:25:04;29.07;;;12.67;;
48975;SDS011;34791;52.752;8.346;2022-12-05T09:27:30;23.20;;;11.10;;
48975;SDS011;34791;52.752;8.346;2022-12-05T09:29:55;26.37;;;11.40;;
48975;SDS011;34791;52.752;8.346;2022-12-05T09:32:21;28.23;;;12.27;;
48975;SDS011;34791;52.752;8.346;2022-12-05T09:34:46;26.60;;;11.13;;
48975;SDS011;34791;52.752;8.346;2022-12-05T09:37:11;25.30;;;12.07;;
48975;SDS011;34791;52.752;8.346;2022-12-05T09:39:37;25.03;;;12.20;;
48975;SDS011;34791;52.752;8.346;2022-12-05T09:47:28;35.77;;;14.53;;
48975;SDS011;34791;52.752;8.346;2022-12-05T09:52:39;31.67;;;13.40;;
48975;SDS011;34791;52.752;8.346;2022-12-05T09:55:12;32.23;;;13.97;;
48975;SDS011;34791;52.752;8.346;2022-12-05T09:57:42;29.50;;;13.33;;
48975;SDS011;34791;52.752;8.346;2022-12-05T10:00:27;28.97;;;12.87;;
48975;SDS011;34791;52.752;8.346;2022-12-05T10:11:49;16.50;;;5.83;;
48975;SDS011;34791;52.752;8.346;2022-12-05T10:16:53;17.67;;;7.93;;
48975;SDS011;34791;52.752;8.346;2022-12-05T10:19:25;18.27;;;8.97;;
48975;SDS011;34791;52.752;8.346;2022-12-05T10:21:56;23.63;;;11.20;;
48975;SDS011;34791;52.752;8.346;2022-12-05T10:26:59;22.23;;;10.00;;
48975;SDS011;34791;52.752;8.346;2022-12-05T10:32:04;22.90;;;11.30;;
48975;SDS011;34791;52.752;8.346;2022-12-05T10:34:39;27.00;;;12.10;;
48975;SDS011;34791;52.752;8.346;2022-12-05T10:39:43;26.50;;;11.80;;
48975;SDS011;34791;52.752;8.346;2022-12-05T10:42:14;24.43;;;12.27;;
48975;SDS011;34791;52.752;8.346;2022-12-05T10:44:45;24.00;;;11.20;;
48975;SDS011;34791;52.752;8.346;2022-12-05T10:47:12;21.10;;;10.13;;
48975;SDS011;34791;52.752;8.346;2022-12-05T10:49:37;25.00;;;11.87;;
48975;SDS011;34791;52.752;8.346;2022-12-05T10:52:04;23.93;;;12.07;;
48975;SDS011;34791;52.752;8.346;2022-12-05T10:54:31;20.07;;;9.90;;
48975;SDS011;34791;52.752;8.346;2022-12-05T10:57:22;24.10;;;11.47;;
48975;SDS011;34791;52.752;8.346;2022-12-05T10:59:50;30.10;;;11.93;;
48975;SDS011;34791;52.752;8.346;2022-12-05T11:02:17;23.23;;;12.33;;
48975;SDS011;34791;52.752;8.346;2022-12-05T11:04:48;27.83;;;12.50;;
48975;SDS011;34791;52.752;8.346;2022-12-05T11:07:47;22.37;;;12.07;;
48975;SDS011;34791;52.752;8.346;2022-12-05T11:10:21;23.23;;;12.13;;
48975;SDS011;34791;52.752;8.346;2022-12-05T11:12:50;26.75;;;13.18;;
48975;SDS011;34791;52.752;8.346;2022-12-05T11:17:45;27.83;;;13.73;;
48975;SDS011;34791;52.752;8.346;2022-12-05T11:22:42;23.52;;;11.80;;
48975;SDS011;34791;52.752;8.346;2022-12-05T11:25:30;26.47;;;13.50;;
48975;SDS011;34791;52.752;8.346;2022-12-05T11:27:57;22.93;;;12.07;;
48975;SDS011;34791;52.752;8.346;2022-12-05T11:30:25;23.77;;;12.20;;
48975;SDS011;34791;52.752;8.346;2022-12-05T11:35:44;16.63;;;8.67;;
48975;SDS011;34791;52.752;8.346;2022-12-05T11:38:10;14.87;;;7.53;;
48975;SDS011;34791;52.752;8.346;2022-12-05T11:43:26;19.77;;;10.47;;
48975;SDS011;34791;52.752;8.346;2022-12-05T11:51:39;17.40;;;9.70;;
48975;SDS011;34791;52.752;8.346;2022-12-05T11:57:09;15.33;;;8.50;;
48975;SDS011;34791;52.752;8.346;2022-12-05T11:59:41;17.60;;;9.90;;
48975;SDS011;34791;52.752;8.346;2022-12-05T12:21:28;18.15;;;10.88;;
48975;SDS011;34791;52.752;8.346;2022-12-05T12:24:15;17.67;;;9.77;;
48975;SDS011;34791;52.752;8.346;2022-12-05T12:32:34;18.53;;;10.57;;
48975;SDS011;34791;52.752;8.346;2022-12-05T12:50:23;17.35;;;10.02;;
48975;SDS011;34791;52.752;8.346;2022-12-05T12:53:04;17.97;;;10.33;;
48975;SDS011;34791;52.752;8.346;2022-12-05T12:55:40;18.03;;;10.20;;
48975;SDS011;34791;52.752;8.346;2022-12-05T13:03:49;21.50;;;11.80;;
48975;SDS011;34791;52.752;8.346;2022-12-05T13:06:27;20.47;;;11.77;;
48975;SDS011;34791;52.752;8.346;2022-12-05T13:08:59;18.07;;;11.03;;
48975;SDS011;34791;52.752;8.346;2022-12-05T13:11:30;21.80;;;11.83;;
48975;SDS011;34791;52.752;8.346;2022-12-05T13:14:00;18.17;;;10.63;;
48975;SDS011;34791;52.752;8.346;2022-12-05T13:16:29;40.80;;;20.77;;
48975;SDS011;34791;52.752;8.346;2022-12-05T13:18:58;18.27;;;10.77;;
48975;SDS011;34791;52.752;8.346;2022-12-05T13:21:24;20.77;;;11.43;;
48975;SDS011;34791;52.752;8.346;2022-12-05T13:23:52;20.17;;;11.13;;
48975;SDS011;34791;52.752;8.346;2022-12-05T13:26:27;17.20;;;10.83;;
48975;SDS011;34791;52.752;8.346;2022-12-05T13:28:56;14.53;;;8.87;;
48975;SDS011;34791;52.752;8.346;2022-12-05T13:36:58;17.63;;;9.77;;
48975;SDS011;34791;52.752;8.346;2022-12-05T13:39:53;17.37;;;9.50;;
48975;SDS011;34791;52.752;8.346;2022-12-05T13:42:39;19.77;;;11.00;;
48975;SDS011;34791;52.752;8.346;2022-12-05T13:45:07;18.83;;;10.30;;
48975;SDS011;34791;52.752;8.346;2022-12-05T13:52:48;15.67;;;8.80;;
48975;SDS011;34791;52.752;8.346;2022-12-05T13:55:21;16.37;;;9.37;;
48975;SDS011;34791;52.752;8.346;2022-12-05T13:57:53;19.73;;;10.43;;
48975;SDS011;34791;52.752;8.346;2022-12-05T14:00:21;19.43;;;10.53;;
48975;SDS011;34791;52.752;8.346;2022-12-05T14:02:49;17.90;;;10.60;;
48975;SDS011;34791;52.752;8.346;2022-12-05T14:07:56;21.60;;;12.10;;
48975;SDS011;34791;52.752;8.346;2022-12-05T14:12:51;19.63;;;11.70;;
48975;SDS011;34791;52.752;8.346;2022-12-05T14:15:24;23.83;;;15.10;;
48975;SDS011;34791;52.752;8.346;2022-12-05T14:18:04;20.47;;;11.80;;
48975;SDS011;34791;52.752;8.346;2022-12-05T14:23:28;21.83;;;12.53;;
48975;SDS011;34791;52.752;8.346;2022-12-05T14:32:09;22.77;;;11.83;;
48975;SDS011;34791;52.752;8.346;2022-12-05T14:38:03;26.97;;;15.20;;
48975;SDS011;34791;52.752;8.346;2022-12-05T14:45:55;22.90;;;12.43;;
48975;SDS011;34791;52.752;8.346;2022-12-05T14:48:24;24.10;;;13.30;;
48975;SDS011;34791;52.752;8.346;2022-12-05T14:50:55;24.10;;;13.13;;
48975;SDS011;34791;52.752;8.346;2022-12-05T14:55:56;22.90;;;13.00;;
48975;SDS011;34791;52.752;8.346;2022-12-05T15:07:06;25.30;;;13.40;;
48975;SDS011;34791;52.752;8.346;2022-12-05T15:09:39;27.23;;;13.93;;
48975;SDS011;34791;52.752;8.346;2022-12-05T15:12:12;24.40;;;13.67;;
48975;SDS011;34791;52.752;8.346;2022-12-05T15:14:43;25.43;;;13.80;;
48975;SDS011;34791;52.752;8.346;2022-12-05T15:17:14;26.00;;;13.35;;
48975;SDS011;34791;52.752;8.346;2022-12-05T15:19:54;24.57;;;13.67;;
48975;SDS011;34791;52.752;8.346;2022-12-05T15:24:53;25.67;;;12.77;;
48975;SDS011;34791;52.752;8.346;2022-12-05T15:27:19;25.23;;;12.80;;
48975;SDS011;34791;52.752;8.346;2022-12-05T15:29:44;25.23;;;13.73;;
48975;SDS011;34791;52.752;8.346;2022-12-05T15:37:11;25.33;;;13.20;;
48975;SDS011;34791;52.752;8.346;2022-12-05T15:39:51;24.70;;;14.10;;
48975;SDS011;34791;52.752;8.346;2022-12-05T15:42:23;25.57;;;13.97;;
48975;SDS011;34791;52.752;8.346;2022-12-05T15:44:50;27.83;;;14.13;;
48975;SDS011;34791;52.752;8.346;2022-12-05T15:47:23;27.43;;;14.30;;
48975;SDS011;34791;52.752;8.346;2022-12-05T15:49:50;26.33;;;14.17;;
48975;SDS011;34791;52.752;8.346;2022-12-05T15:54:59;28.10;;;14.80;;
48975;SDS011;34791;52.752;8.346;2022-12-05T15:57:43;35.97;;;18.37;;
48975;SDS011;34791;52.752;8.346;2022-12-05T16:00:15;28.50;;;15.00;;
48975;SDS011;34791;52.752;8.346;2022-12-05T16:05:18;26.37;;;14.17;;
48975;SDS011;34791;52.752;8.346;2022-12-05T16:07:46;27.07;;;14.33;;
48975;SDS011;34791;52.752;8.346;2022-12-05T16:10:14;26.90;;;14.50;;
48975;SDS011;34791;52.752;8.346;2022-12-05T16:12:40;31.47;;;15.60;;
48975;SDS011;34791;52.752;8.346;2022-12-05T16:15:10;31.47;;;15.53;;
48975;SDS011;34791;52.752;8.346;2022-12-05T16:17:52;28.65;;;14.90;;
48975;SDS011;34791;52.752;8.346;2022-12-05T16:20:21;30.25;;;15.57;;
48975;SDS011;34791;52.752;8.346;2022-12-05T16:22:57;31.73;;;16.20;;
48975;SDS011;34791;52.752;8.346;2022-12-05T16:25:32;38.40;;;20.03;;
48975;SDS011;34791;52.752;8.346;2022-12-05T16:30:27;35.13;;;19.17;;
48975;SDS011;34791;52.752;8.346;2022-12-05T16:33:12;35.60;;;18.33;;
48975;SDS011;34791;52.752;8.346;2022-12-05T16:35:41;31.57;;;16.80;;
48975;SDS011;34791;52.752;8.346;2022-12-05T16:43:17;32.33;;;16.27;;
48975;SDS011;34791;52.752;8.346;2022-12-05T16:45:47;32.87;;;16.90;;
48975;SDS011;34791;52.752;8.346;2022-12-05T16:53:39;34.80;;;17.10;;
48975;SDS011;34791;52.752;8.346;2022-12-05T16:56:10;30.87;;;16.40;;
48975;SDS011;34791;52.752;8.346;2022-12-05T16:58:39;37.83;;;17.83;;
48975;SDS011;34791;52.752;8.346;2022-12-05T17:01:05;33.27;;;17.17;;
48975;SDS011;34791;52.752;8.346;2022-12-05T17:03:32;42.23;;;17.97;;
48975;SDS011;34791;52.752;8.346;2022-12-05T17:05:59;33.60;;;17.10;;
48975;SDS011;34791;52.752;8.346;2022-12-05T17:08:25;35.37;;;16.93;;
48975;SDS011;34791;52.752;8.346;2022-12-05T17:10:51;36.27;;;17.23;;
48975;SDS011;34791;52.752;8.346;2022-12-05T17:13:18;33.23;;;16.43;;
48975;SDS011;34791;52.752;8.346;2022-12-05T17:15:44;37.97;;;17.60;;
48975;SDS011;34791;52.752;8.346;2022-12-05T17:18:12;34.43;;;16.23;;
48975;SDS011;34791;52.752;8.346;2022-12-05T17:20:42;39.22;;;16.42;;
48975;SDS011;34791;52.752;8.346;2022-12-05T17:23:13;33.33;;;16.73;;
48975;SDS011;34791;52.752;8.346;2022-12-05T17:25:48;36.80;;;17.47;;
48975;SDS011;34791;52.752;8.346;2022-12-05T17:28:16;38.73;;;18.20;;
48975;SDS011;34791;52.752;8.346;2022-12-05T17:30:42;39.20;;;17.73;;
48975;SDS011;34791;52.752;8.346;2022-12-05T17:33:12;41.30;;;17.87;;
48975;SDS011;34791;52.752;8.346;2022-12-05T17:35:39;37.67;;;17.25;;
48975;SDS011;34791;52.752;8.346;2022-12-05T17:38:05;44.33;;;19.30;;
48975;SDS011;34791;52.752;8.346;2022-12-05T17:40:32;45.20;;;20.23;;
48975;SDS011;34791;52.752;8.346;2022-12-05T17:42:58;52.50;;;22.37;;
48975;SDS011;34791;52.752;8.346;2022-12-05T17:45:24;48.77;;;21.87;;
48975;SDS011;34791;52.752;8.346;2022-12-05T17:47:50;45.57;;;20.50;;
48975;SDS011;34791;52.752;8.346;2022-12-05T17:50:17;50.17;;;21.53;;
48975;SDS011;34791;52.752;8.346;2022-12-05T17:52:46;55.07;;;22.03;;
48975;SDS011;34791;52.752;8.346;2022-12-05T17:55:21;49.80;;;22.20;;
48975;SDS011;34791;52.752;8.346;2022-12-05T17:57:53;52.80;;;23.00;;
48975;SDS011;34791;52.752;8.346;2022-12-05T18:00:20;51.83;;;22.40;;
48975;SDS011;34791;52.752;8.346;2022-12-05T18:02:47;57.67;;;26.87;;
48975;SDS011;34791;52.752;8.346;2022-12-05T18:05:14;55.43;;;25.93;;